createdAt,value
2017-05-17T04:26:15.093Z,54.45
2017-05-17T04:27:15.402Z,54.50
2017-05-17T04:28:16.584Z,54.54
2017-05-17T04:29:15.229Z,54.54
2017-05-17T04:30:15.805Z,54.52
2017-05-17T04:31:15.037Z,54.48
2017-05-17T04:32:14.621Z,54.49
2017-05-17T04:33:15.166Z,54.52
2017-05-17T04:34:16.720Z,54.55
2017-05-17T04:35:15.075Z,54.39
2017-05-17T04:36:15.048Z,53.66
2017-05-17T04:37:16.535Z,53.45
2017-05-17T04:38:15.120Z,53.70
2017-05-17T04:39:14.927Z,54.25
2017-05-17T04:40:16.264Z,54.29
2017-05-17T04:41:14.617Z,53.61
2017-05-17T04:42:13.529Z,53.45
2017-05-17T04:43:15.073Z,53.33
2017-05-17T04:44:13.196Z,53.45
2017-05-17T04:45:13.728Z,53.34
2017-05-17T04:46:13.972Z,53.33
2017-05-17T04:47:14.587Z,53.32
2017-05-17T04:48:13.936Z,53.33
2017-05-17T04:49:13.507Z,53.28
2017-05-17T04:50:14.826Z,54.09
2017-05-17T04:51:12.678Z,54.28
2017-05-17T04:52:13.425Z,54.48
2017-05-17T04:53:14.557Z,54.44
2017-05-17T04:54:14.280Z,54.50
2017-05-17T04:55:16.157Z,54.49
2017-05-17T04:56:13.649Z,54.54
2017-05-17T04:57:14.039Z,54.46
2017-05-17T04:58:13.704Z,54.53
2017-05-17T04:59:14.479Z,54.55
2017-05-17T05:00:13.700Z,54.50
2017-05-17T05:01:14.569Z,54.60
2017-05-17T05:02:13.668Z,54.58
2017-05-17T05:03:14.634Z,54.54
2017-05-17T05:04:14.243Z,54.34
2017-05-17T05:05:13.522Z,53.71
2017-05-17T05:06:15.293Z,53.60
2017-05-17T05:07:13.657Z,53.40
2017-05-17T05:08:16.743Z,53.69
2017-05-17T05:09:14.310Z,54.17
2017-05-17T05:10:15.050Z,54.31
2017-05-17T05:11:13.372Z,54.38
2017-05-17T05:12:14.080Z,54.45
2017-05-17T05:13:14.129Z,54.50
2017-05-17T05:14:16.321Z,54.44
2017-05-17T05:15:14.674Z,54.51
2017-05-17T05:16:11.562Z,54.58
2017-05-17T05:17:14.666Z,54.61
2017-05-17T05:18:14.238Z,54.56
2017-05-17T05:19:13.566Z,54.59
2017-05-17T05:20:14.362Z,54.51
2017-05-17T05:21:15.507Z,54.62
2017-05-17T05:22:13.843Z,54.54
2017-05-17T05:23:14.170Z,54.52
2017-05-17T05:24:13.262Z,54.46
2017-05-17T05:25:14.663Z,54.52
2017-05-17T05:26:12.492Z,54.45
2017-05-17T05:27:14.075Z,53.70
2017-05-17T05:28:13.437Z,53.54
2017-05-17T05:29:13.710Z,53.75
2017-05-17T05:30:12.123Z,54.22
2017-05-17T05:31:14.589Z,54.36
2017-05-17T05:32:14.947Z,54.44
2017-05-17T05:33:14.733Z,54.48
2017-05-17T05:34:15.951Z,54.55
2017-05-17T05:35:14.213Z,54.52
2017-05-17T05:36:14.783Z,54.61
2017-05-17T05:37:15.318Z,54.49
2017-05-17T05:38:14.408Z,54.53
2017-05-17T05:39:14.122Z,54.49
2017-05-17T05:40:14.719Z,54.54
2017-05-17T05:41:12.359Z,54.47
2017-05-17T05:42:11.715Z,54.51
2017-05-17T05:43:11.906Z,54.52
2017-05-17T05:44:14.861Z,54.58
2017-05-17T05:45:14.931Z,54.55
2017-05-17T05:46:14.125Z,54.52
2017-05-17T05:47:14.474Z,54.41
2017-05-17T05:48:14.704Z,53.82
2017-05-17T05:49:12.272Z,54.33
2017-05-17T05:50:15.721Z,54.50
2017-05-17T05:51:14.869Z,54.49
2017-05-17T05:52:16.293Z,54.57
2017-05-17T05:53:14.433Z,54.61
2017-05-17T05:54:15.215Z,54.54
2017-05-17T05:55:15.066Z,54.63
2017-05-17T05:56:14.960Z,54.62
2017-05-17T05:57:10.120Z,54.60
2017-05-17T05:58:15.074Z,54.53
2017-05-17T05:59:13.928Z,54.55
2017-05-17T06:00:11.501Z,54.66
2017-05-17T06:01:13.931Z,54.67
2017-05-17T06:02:14.692Z,54.61
2017-05-17T06:03:14.518Z,54.66
2017-05-17T06:04:14.905Z,54.70
2017-05-17T06:05:14.232Z,54.49
2017-05-17T06:06:14.800Z,53.82
2017-05-17T06:07:16.402Z,53.64
2017-05-17T06:08:14.655Z,53.59
2017-05-17T06:09:13.778Z,53.57
2017-05-17T06:10:15.180Z,54.33
2017-05-17T06:11:15.466Z,54.53
2017-05-17T06:12:14.856Z,54.49
2017-05-17T06:13:14.978Z,54.61
2017-05-17T06:14:14.247Z,54.56
2017-05-17T06:15:14.850Z,54.63
2017-05-17T06:16:12.329Z,54.62
2017-05-17T06:17:11.270Z,54.73
2017-05-17T06:18:14.735Z,54.78
2017-05-17T06:19:17.652Z,54.96
2017-05-17T06:20:14.925Z,54.94
2017-05-17T06:21:14.653Z,54.83
2017-05-17T06:22:14.714Z,54.79
2017-05-17T06:23:15.716Z,54.82
2017-05-17T06:24:14.842Z,54.92
2017-05-17T06:25:15.876Z,55.91
2017-05-17T06:26:15.486Z,56.33
2017-05-17T06:27:14.562Z,56.11
2017-05-17T06:28:14.848Z,56.10
2017-05-17T06:29:15.378Z,55.86
2017-05-17T06:30:14.742Z,55.59
2017-05-17T06:31:15.194Z,55.32
2017-05-17T06:32:15.230Z,55.57
2017-05-17T06:33:15.221Z,55.34
2017-05-17T06:34:14.684Z,55.87
2017-05-17T06:35:14.718Z,56.09
2017-05-17T06:36:14.788Z,55.82
2017-05-17T06:37:14.928Z,56.61
2017-05-17T06:38:14.694Z,55.98
2017-05-17T06:39:15.768Z,56.09
2017-05-17T06:40:15.156Z,56.11
2017-05-17T06:41:14.472Z,56.17
2017-05-17T06:42:14.960Z,56.42
2017-05-17T06:43:14.439Z,56.30
2017-05-17T06:44:14.944Z,56.94
2017-05-17T06:45:14.073Z,57.27
2017-05-17T06:46:15.304Z,57.44
2017-05-17T06:47:15.213Z,56.75
2017-05-17T06:48:14.681Z,56.32
2017-05-17T06:49:15.090Z,55.52
2017-05-17T06:50:14.339Z,55.24
2017-05-17T06:51:11.949Z,54.94
2017-05-17T06:52:12.343Z,54.75
2017-05-17T06:53:12.485Z,54.53
2017-05-17T06:54:15.088Z,54.43
2017-05-17T06:55:14.688Z,54.52
2017-05-17T06:56:14.402Z,54.16
2017-05-17T06:57:14.736Z,54.80
2017-05-17T06:58:14.763Z,54.86
2017-05-17T06:59:15.020Z,54.90
2017-05-17T07:00:14.504Z,55.03
2017-05-17T07:01:15.333Z,55.03
2017-05-17T07:02:15.004Z,54.98
2017-05-17T07:03:14.297Z,54.88
2017-05-17T07:04:15.045Z,54.67
2017-05-17T07:05:14.918Z,54.24
2017-05-17T07:06:17.529Z,54.10
2017-05-17T07:07:15.189Z,53.45
2017-05-17T07:08:15.488Z,53.40
2017-05-17T07:09:14.938Z,53.20
2017-05-17T07:10:14.089Z,52.93
2017-05-17T07:11:14.096Z,52.88
2017-05-17T07:12:14.228Z,52.61
2017-05-17T07:13:11.947Z,52.50
2017-05-17T07:14:14.812Z,52.38
2017-05-17T07:15:14.967Z,52.26
2017-05-17T07:16:14.361Z,52.61
2017-05-17T07:17:14.716Z,52.78
2017-05-17T07:18:14.971Z,52.87
2017-05-17T07:19:13.938Z,52.96
2017-05-17T07:20:14.074Z,52.82
2017-05-17T07:21:14.441Z,52.88
2017-05-17T07:22:15.195Z,52.41
2017-05-17T07:23:14.226Z,52.68
2017-05-17T07:24:14.434Z,52.63
2017-05-17T07:25:15.060Z,52.73
2017-05-17T07:26:14.278Z,52.82
2017-05-17T07:27:14.982Z,52.52
2017-05-17T07:28:14.253Z,52.68
2017-05-17T07:29:14.489Z,52.67
2017-05-17T07:30:15.111Z,52.65
2017-05-17T07:31:14.088Z,52.62
2017-05-17T07:32:14.189Z,52.60
2017-05-17T07:33:14.312Z,52.58
2017-05-17T07:34:12.471Z,52.46
2017-05-17T07:35:15.298Z,51.85
2017-05-17T07:36:14.514Z,52.25
2017-05-17T07:37:14.537Z,52.44
2017-05-17T07:38:14.450Z,52.55
2017-05-17T07:39:14.402Z,52.52
2017-05-17T07:40:14.588Z,52.46
2017-05-17T07:41:12.047Z,52.37
2017-05-17T07:42:12.762Z,52.44
2017-05-17T07:43:15.047Z,52.68
2017-05-17T07:44:14.506Z,52.66
2017-05-17T07:45:14.690Z,52.79
2017-05-17T07:46:15.235Z,52.65
2017-05-17T07:47:14.615Z,52.76
2017-05-17T07:48:15.303Z,52.83
2017-05-17T07:49:11.226Z,52.90
2017-05-17T07:50:14.508Z,52.86
2017-05-17T07:51:14.489Z,52.82
2017-05-17T07:52:14.408Z,52.78
2017-05-17T07:53:14.429Z,52.87
2017-05-17T07:54:14.562Z,52.92
2017-05-17T07:55:14.483Z,53.11
2017-05-17T07:56:15.066Z,53.03
2017-05-17T07:57:14.506Z,53.19
2017-05-17T07:58:14.816Z,53.09
2017-05-17T07:59:14.894Z,53.10
2017-05-17T08:00:14.205Z,53.14
2017-05-17T08:01:14.515Z,53.26
2017-05-17T08:02:14.564Z,53.16
2017-05-17T08:03:15.276Z,53.15
2017-05-17T08:04:15.222Z,53.08
2017-05-17T08:05:15.847Z,53.09
2017-05-17T08:06:16.744Z,53.12
2017-05-17T08:07:16.257Z,53.14
2017-05-17T08:08:14.480Z,53.17
2017-05-17T08:09:20.048Z,53.24
2017-05-17T08:10:15.059Z,53.27
2017-05-17T08:11:14.283Z,53.25
2017-05-17T08:12:17.776Z,53.29
2017-05-17T08:13:15.767Z,53.30
2017-05-17T08:14:14.780Z,53.28
2017-05-17T08:15:15.489Z,53.28
2017-05-17T08:16:11.832Z,53.29
2017-05-17T08:17:16.165Z,53.28
2017-05-17T08:18:15.052Z,53.31
2017-05-17T08:19:14.600Z,53.26
2017-05-17T08:20:14.675Z,53.22
2017-05-17T08:21:12.523Z,53.26
2017-05-17T08:22:15.215Z,53.09
2017-05-17T08:23:14.371Z,52.85
2017-05-17T08:24:14.874Z,53.16
2017-05-17T08:25:14.214Z,53.21
2017-05-17T08:26:14.474Z,53.24
2017-05-17T08:27:14.720Z,53.25
2017-05-17T08:28:14.815Z,53.31
2017-05-17T08:29:17.587Z,53.34
2017-05-17T08:30:12.797Z,53.32
2017-05-17T08:31:15.315Z,53.16
2017-05-17T08:32:14.304Z,52.55
2017-05-17T08:33:14.731Z,52.32
2017-05-17T08:34:15.035Z,52.27
2017-05-17T08:35:14.113Z,52.24
2017-05-17T08:36:15.585Z,52.57
2017-05-17T08:37:15.883Z,53.04
2017-05-17T08:38:10.055Z,53.21
2017-05-17T08:39:14.166Z,53.27
2017-05-17T08:40:14.438Z,53.32
2017-05-17T08:41:14.767Z,53.33
2017-05-17T08:42:14.512Z,53.37
2017-05-17T08:43:15.128Z,53.37
2017-05-17T08:44:14.735Z,53.13
2017-05-17T08:45:15.119Z,52.49
2017-05-17T08:46:14.156Z,52.32
2017-05-17T08:47:14.333Z,52.24
2017-05-17T08:48:14.961Z,52.43
2017-05-17T08:49:14.434Z,53.02
2017-05-17T08:50:14.814Z,53.14
2017-05-17T08:51:18.169Z,53.21
2017-05-17T08:52:14.299Z,53.25
2017-05-17T08:53:15.551Z,53.24
2017-05-17T08:54:15.065Z,53.27
2017-05-17T08:55:14.688Z,53.25
2017-05-17T08:56:14.816Z,53.25
2017-05-17T08:57:15.235Z,53.25
2017-05-17T08:58:14.150Z,53.24
2017-05-17T08:59:15.707Z,53.22
2017-05-17T09:00:14.794Z,53.23
2017-05-17T09:01:15.645Z,53.22
2017-05-17T09:02:15.625Z,53.24
2017-05-17T09:03:14.868Z,53.20
2017-05-17T09:04:16.720Z,53.21
2017-05-17T09:05:15.911Z,53.20
2017-05-17T09:06:15.238Z,53.19
2017-05-17T09:07:14.208Z,53.18
2017-05-17T09:08:15.615Z,53.17
2017-05-17T09:09:15.286Z,52.98
2017-05-17T09:10:11.671Z,52.33
2017-05-17T09:11:14.603Z,52.14
2017-05-17T09:12:12.845Z,52.05
2017-05-17T09:13:15.292Z,52.00
2017-05-17T09:14:14.735Z,51.96
2017-05-17T09:15:14.871Z,52.28
2017-05-17T09:16:15.005Z,52.77
2017-05-17T09:17:14.405Z,52.71
2017-05-17T09:18:14.816Z,52.15
2017-05-17T09:19:14.928Z,52.01
2017-05-17T09:20:13.964Z,51.98
2017-05-17T09:21:14.053Z,51.79
2017-05-17T09:22:14.570Z,51.91
2017-05-17T09:23:14.705Z,51.88
2017-05-17T09:24:15.360Z,51.88
2017-05-17T09:25:14.397Z,51.99
2017-05-17T09:26:15.435Z,52.67
2017-05-17T09:27:15.450Z,52.83
2017-05-17T09:28:14.966Z,52.90
2017-05-17T09:29:14.262Z,52.94
2017-05-17T09:30:15.657Z,52.96
2017-05-17T09:31:14.934Z,52.98
2017-05-17T09:32:14.334Z,52.87
2017-05-17T09:33:15.185Z,52.28
2017-05-17T09:34:14.634Z,52.82
2017-05-17T09:35:14.693Z,52.92
2017-05-17T09:36:15.082Z,52.95
2017-05-17T09:37:14.615Z,52.96
2017-05-17T09:38:14.714Z,52.98
2017-05-17T09:39:14.611Z,52.99
2017-05-17T09:40:14.719Z,53.00
2017-05-17T09:41:14.881Z,53.00
2017-05-17T09:42:15.435Z,53.00
2017-05-17T09:43:15.375Z,52.99
2017-05-17T09:44:14.719Z,52.99
2017-05-17T09:45:14.984Z,52.99
2017-05-17T09:46:14.636Z,52.99
2017-05-17T09:47:14.573Z,53.00
2017-05-17T09:48:15.904Z,52.99
2017-05-17T09:49:14.323Z,52.98
2017-05-17T09:50:14.691Z,52.98
2017-05-17T09:51:15.143Z,52.99
2017-05-17T09:52:14.065Z,52.98
2017-05-17T09:53:14.029Z,52.98
2017-05-17T09:54:14.711Z,52.78
2017-05-17T09:55:14.778Z,52.12
2017-05-17T09:56:15.062Z,51.96
2017-05-17T09:57:15.021Z,52.19
2017-05-17T09:58:15.106Z,52.65
2017-05-17T09:59:11.257Z,52.78
2017-05-17T10:00:16.267Z,52.85
2017-05-17T10:01:15.871Z,52.90
2017-05-17T10:02:15.115Z,52.92
2017-05-17T10:03:15.718Z,52.92
2017-05-17T10:04:14.769Z,52.92
2017-05-17T10:05:16.351Z,52.93
2017-05-17T10:06:15.004Z,52.92
2017-05-17T10:07:14.591Z,52.93
2017-05-17T10:08:14.933Z,52.93
2017-05-17T10:09:13.915Z,52.92
2017-05-17T10:10:11.615Z,52.93
2017-05-17T10:11:14.740Z,52.91
2017-05-17T10:12:14.862Z,52.92
2017-05-17T10:13:12.465Z,52.92
2017-05-17T10:14:14.384Z,52.93
2017-05-17T10:15:15.006Z,52.91
2017-05-17T10:16:14.296Z,52.80
2017-05-17T10:17:14.985Z,52.07
2017-05-17T10:18:13.952Z,52.06
2017-05-17T10:19:14.107Z,52.64
2017-05-17T10:20:15.521Z,52.77
2017-05-17T10:21:15.665Z,52.83
2017-05-17T10:22:14.696Z,52.86
2017-05-17T10:23:14.857Z,52.84
2017-05-17T10:24:15.205Z,52.87
2017-05-17T10:25:14.411Z,52.86
2017-05-17T10:26:14.413Z,52.88
2017-05-17T10:27:15.409Z,52.89
2017-05-17T10:28:14.680Z,52.87
2017-05-17T10:29:14.979Z,52.87
2017-05-17T10:30:14.100Z,52.90
2017-05-17T10:31:15.554Z,52.87
2017-05-17T10:32:14.780Z,52.87
2017-05-17T10:33:15.320Z,52.88
2017-05-17T10:34:14.570Z,52.87
2017-05-17T10:35:15.075Z,52.86
2017-05-17T10:36:14.987Z,52.87
2017-05-17T10:37:14.832Z,52.86
2017-05-17T10:38:11.207Z,52.89
2017-05-17T10:39:16.023Z,52.86
2017-05-17T10:40:14.053Z,52.89
2017-05-17T10:41:14.740Z,52.89
2017-05-17T10:42:14.867Z,52.86
2017-05-17T10:43:15.026Z,52.86
2017-05-17T10:44:14.009Z,52.88
2017-05-17T10:45:20.496Z,52.88
2017-05-17T10:46:14.503Z,52.88
2017-05-17T10:47:14.833Z,52.87
2017-05-17T10:48:14.662Z,52.91
2017-05-17T10:49:14.901Z,52.91
2017-05-17T10:50:14.211Z,52.87
2017-05-17T10:51:14.759Z,52.88
2017-05-17T10:52:15.020Z,52.69
2017-05-17T10:53:14.559Z,52.07
2017-05-17T10:54:14.696Z,51.88
2017-05-17T10:55:14.905Z,52.04
2017-05-17T10:56:14.470Z,52.59
2017-05-17T10:57:14.982Z,52.70
2017-05-17T10:58:15.621Z,52.67
2017-05-17T10:59:12.554Z,52.01
2017-05-17T11:00:17.152Z,51.82
2017-05-17T11:01:14.375Z,52.02
2017-05-17T11:02:15.331Z,52.58
2017-05-17T11:03:15.115Z,52.69
2017-05-17T11:04:15.661Z,52.77
2017-05-17T11:05:14.863Z,52.81
2017-05-17T11:06:15.627Z,52.83
2017-05-17T11:07:15.438Z,52.85
2017-05-17T11:08:15.281Z,52.84
2017-05-17T11:09:14.479Z,52.84
2017-05-17T11:10:14.823Z,52.86
2017-05-17T11:11:12.266Z,52.86
2017-05-17T11:12:15.558Z,52.84
2017-05-17T11:13:14.557Z,52.82
2017-05-17T11:14:14.759Z,52.78
2017-05-17T11:15:15.115Z,52.82
2017-05-17T11:16:14.579Z,52.84
2017-05-17T11:17:15.400Z,52.83
2017-05-17T11:18:14.923Z,52.82
2017-05-17T11:19:14.272Z,52.81
2017-05-17T11:20:14.570Z,52.83
2017-05-17T11:21:15.558Z,52.83
2017-05-17T11:22:10.853Z,52.85
2017-05-17T11:23:14.502Z,52.83
2017-05-17T11:24:11.371Z,52.83
2017-05-17T11:25:15.230Z,52.81
2017-05-17T11:26:14.731Z,52.84
2017-05-17T11:27:14.883Z,52.83
2017-05-17T11:28:18.333Z,52.83
2017-05-17T11:29:14.848Z,52.81
2017-05-17T11:30:16.022Z,52.85
2017-05-17T11:31:13.827Z,52.81
2017-05-17T11:32:15.218Z,52.83
2017-05-17T11:33:14.812Z,52.85
2017-05-17T11:34:14.964Z,52.84
2017-05-17T11:35:13.904Z,52.83
2017-05-17T11:36:14.798Z,52.86
2017-05-17T11:37:11.871Z,52.86
2017-05-17T11:38:12.023Z,52.84
2017-05-17T11:39:14.983Z,52.63
2017-05-17T11:40:14.707Z,52.04
2017-05-17T11:41:15.254Z,52.68
2017-05-17T11:42:14.613Z,52.75
2017-05-17T11:43:14.705Z,52.79
2017-05-17T11:44:15.417Z,52.80
2017-05-17T11:45:15.510Z,52.81
2017-05-17T11:46:14.537Z,52.83
2017-05-17T11:47:12.382Z,52.69
2017-05-17T11:48:15.071Z,51.97
2017-05-17T11:49:14.480Z,51.84
2017-05-17T11:50:14.834Z,51.77
2017-05-17T11:51:13.676Z,51.80
2017-05-17T11:52:14.428Z,51.67
2017-05-17T11:53:14.902Z,51.65
2017-05-17T11:54:14.795Z,51.81
2017-05-17T11:55:15.061Z,52.46
2017-05-17T11:56:14.142Z,52.59
2017-05-17T11:57:15.730Z,52.68
2017-05-17T11:58:15.016Z,52.75
2017-05-17T11:59:12.536Z,52.74
2017-05-17T12:00:14.959Z,52.74
2017-05-17T12:01:14.280Z,52.77
2017-05-17T12:02:14.897Z,52.57
2017-05-17T12:03:14.236Z,51.93
2017-05-17T12:04:14.868Z,51.80
2017-05-17T12:05:15.528Z,51.73
2017-05-17T12:06:14.440Z,51.68
2017-05-17T12:07:14.844Z,51.73
2017-05-17T12:08:15.288Z,52.43
2017-05-17T12:09:14.704Z,52.61
2017-05-17T12:10:15.265Z,52.65
2017-05-17T12:11:14.404Z,52.72
2017-05-17T12:12:15.214Z,52.71
2017-05-17T12:13:15.171Z,52.73
2017-05-17T12:14:14.371Z,52.76
2017-05-17T12:15:14.713Z,52.75
2017-05-17T12:16:14.926Z,52.77
2017-05-17T12:17:14.815Z,52.74
2017-05-17T12:18:15.283Z,52.75
2017-05-17T12:19:15.324Z,52.78
2017-05-17T12:20:14.367Z,52.75
2017-05-17T12:21:14.802Z,52.77
2017-05-17T12:22:15.103Z,52.76
2017-05-17T12:23:14.268Z,52.78
2017-05-17T12:24:14.617Z,52.76
2017-05-17T12:25:14.736Z,52.78
2017-05-17T12:26:14.852Z,52.75
2017-05-17T12:27:14.984Z,52.75
2017-05-17T12:28:14.535Z,52.75
2017-05-17T12:29:14.583Z,52.75
2017-05-17T12:30:11.990Z,52.76
2017-05-17T12:31:11.083Z,52.77
2017-05-17T12:32:12.081Z,52.56
2017-05-17T12:33:15.169Z,52.51
2017-05-17T12:34:14.223Z,52.27
2017-05-17T12:35:14.671Z,52.60
2017-05-17T12:36:14.738Z,52.68
2017-05-17T12:37:16.201Z,52.72
2017-05-17T12:38:14.760Z,52.71
2017-05-17T12:39:14.922Z,52.79
2017-05-17T12:40:14.156Z,52.72
2017-05-17T12:41:14.412Z,52.72
2017-05-17T12:42:10.321Z,52.78
2017-05-17T12:43:17.832Z,52.73
2017-05-17T12:44:15.050Z,52.76
2017-05-17T12:45:14.438Z,52.75
2017-05-17T12:46:14.783Z,52.75
2017-05-17T12:47:15.401Z,52.75
2017-05-17T12:48:14.703Z,52.75
2017-05-17T12:49:14.759Z,52.75
2017-05-17T12:50:14.753Z,52.78
2017-05-17T12:51:15.909Z,52.79
2017-05-17T12:52:14.000Z,52.75
2017-05-17T12:53:14.589Z,52.79
2017-05-17T12:54:14.536Z,52.75
2017-05-17T12:55:14.986Z,52.83
2017-05-17T12:56:15.840Z,52.79
2017-05-17T12:57:15.227Z,52.77
2017-05-17T12:58:16.479Z,52.78
2017-05-17T12:59:14.513Z,52.76
2017-05-17T13:00:15.350Z,52.79
2017-05-17T13:01:11.984Z,52.74
2017-05-17T13:02:12.442Z,51.91
2017-05-17T13:03:14.021Z,51.77
2017-05-17T13:04:14.657Z,52.46
2017-05-17T13:05:15.483Z,52.60
2017-05-17T13:06:15.312Z,52.66
2017-05-17T13:07:15.006Z,52.51
2017-05-17T13:08:14.520Z,51.84
2017-05-17T13:09:14.600Z,51.89
2017-05-17T13:10:14.902Z,52.45
2017-05-17T13:11:14.126Z,52.57
2017-05-17T13:12:14.306Z,52.59
2017-05-17T13:13:15.363Z,52.62
2017-05-17T13:14:15.077Z,52.65
2017-05-17T13:15:14.681Z,52.71
2017-05-17T13:16:16.422Z,52.73
2017-05-17T13:17:14.881Z,52.82
2017-05-17T13:18:15.061Z,52.85
2017-05-17T13:19:14.190Z,52.88
2017-05-17T13:20:14.537Z,52.87
2017-05-17T13:21:15.476Z,52.95
2017-05-17T13:22:12.442Z,53.00
2017-05-17T13:23:15.200Z,53.11
2017-05-17T13:24:14.879Z,53.05
2017-05-17T13:25:14.351Z,53.14
2017-05-17T13:26:14.680Z,53.19
2017-05-17T13:27:14.761Z,53.13
2017-05-17T13:28:14.745Z,53.13
2017-05-17T13:29:15.139Z,52.94
2017-05-17T13:30:14.310Z,52.62
2017-05-17T13:31:14.820Z,52.99
2017-05-17T13:32:15.338Z,53.02
2017-05-17T13:33:14.523Z,53.03
2017-05-17T13:34:15.215Z,53.05
2017-05-17T13:35:14.565Z,53.07
2017-05-17T13:36:16.042Z,53.02
2017-05-17T13:37:14.134Z,53.03
2017-05-17T13:38:14.224Z,52.96
2017-05-17T13:39:14.468Z,52.96
2017-05-17T13:40:15.055Z,52.91
2017-05-17T13:41:14.744Z,52.93
2017-05-17T13:42:15.245Z,52.88
2017-05-17T13:43:14.141Z,52.85
2017-05-17T13:44:15.055Z,52.83
2017-05-17T13:45:14.141Z,52.78
2017-05-17T13:46:14.537Z,52.78
2017-05-17T13:47:14.809Z,52.75
2017-05-17T13:48:15.175Z,52.75
2017-05-17T13:49:14.318Z,52.73
2017-05-17T13:50:14.524Z,52.68
2017-05-17T13:51:14.465Z,52.65
2017-05-17T13:52:14.438Z,52.62
2017-05-17T13:53:14.535Z,52.62
2017-05-17T13:54:14.677Z,52.60
2017-05-17T13:55:12.076Z,52.58
2017-05-17T13:56:14.906Z,52.55
2017-05-17T13:57:15.991Z,52.53
2017-05-17T13:58:14.191Z,52.51
2017-05-17T13:59:16.172Z,52.47
2017-05-17T14:00:14.729Z,52.46
2017-05-17T14:01:15.287Z,52.43
2017-05-17T14:02:14.499Z,52.41
2017-05-17T14:03:14.884Z,52.38
2017-05-17T14:04:14.373Z,52.36
2017-05-17T14:05:14.994Z,52.34
2017-05-17T14:06:14.161Z,52.31
2017-05-17T14:07:14.218Z,52.30
2017-05-17T14:08:14.475Z,52.28
2017-05-17T14:09:14.572Z,52.27
2017-05-17T14:10:14.585Z,52.24
2017-05-17T14:11:15.367Z,52.23
2017-05-17T14:12:14.176Z,52.20
2017-05-17T14:13:15.426Z,52.17
2017-05-17T14:14:14.931Z,52.15
2017-05-17T14:15:14.271Z,52.13
2017-05-17T14:16:14.156Z,52.13
2017-05-17T14:17:12.547Z,52.00
2017-05-17T14:18:14.804Z,51.27
2017-05-17T14:19:14.889Z,51.12
2017-05-17T14:20:14.440Z,51.00
2017-05-17T14:21:14.684Z,50.95
2017-05-17T14:22:14.816Z,50.92
2017-05-17T14:23:16.114Z,51.13
2017-05-17T14:24:14.733Z,51.65
2017-05-17T14:25:14.851Z,51.83
2017-05-17T14:26:14.837Z,51.88
2017-05-17T14:27:15.173Z,51.89
2017-05-17T14:28:14.199Z,51.89
2017-05-17T14:29:14.674Z,51.88
2017-05-17T14:30:15.212Z,51.83
2017-05-17T14:31:14.806Z,51.90
2017-05-17T14:32:15.704Z,51.83
2017-05-17T14:33:15.051Z,51.85
2017-05-17T14:34:13.722Z,51.80
2017-05-17T14:35:14.807Z,51.81
2017-05-17T14:36:15.132Z,51.76
2017-05-17T14:37:14.296Z,51.79
2017-05-17T14:38:14.366Z,51.78
2017-05-17T14:39:14.531Z,51.73
2017-05-17T14:40:14.363Z,51.77
2017-05-17T14:41:14.567Z,51.67
2017-05-17T14:42:14.639Z,51.71
2017-05-17T14:43:12.674Z,51.66
2017-05-17T14:44:12.333Z,51.68
2017-05-17T14:45:11.819Z,51.64
2017-05-17T14:46:14.241Z,50.78
2017-05-17T14:47:14.483Z,50.59
2017-05-17T14:48:14.612Z,50.56
2017-05-17T14:49:11.204Z,51.28
2017-05-17T14:50:14.739Z,50.60
2017-05-17T14:51:15.073Z,50.43
2017-05-17T14:52:11.635Z,50.37
2017-05-17T14:53:14.272Z,50.66
2017-05-17T14:54:14.583Z,51.14
2017-05-17T14:55:15.785Z,51.30
2017-05-17T14:56:16.092Z,51.39
2017-05-17T14:57:14.123Z,51.35
2017-05-17T14:58:16.103Z,51.35
2017-05-17T14:59:14.490Z,51.32
2017-05-17T15:00:15.415Z,51.31
2017-05-17T15:01:15.283Z,51.33
2017-05-17T15:02:14.494Z,51.28
2017-05-17T15:03:15.257Z,51.27
2017-05-17T15:04:15.222Z,51.23
2017-05-17T15:05:14.219Z,51.30
2017-05-17T15:06:12.418Z,51.34
2017-05-17T15:07:15.813Z,51.27
2017-05-17T15:08:15.141Z,51.18
2017-05-17T15:09:14.227Z,51.23
2017-05-17T15:10:11.917Z,51.16
2017-05-17T15:11:14.776Z,51.10
2017-05-17T15:12:14.947Z,51.21
2017-05-17T15:13:14.479Z,51.12
2017-05-17T15:14:15.545Z,51.12
2017-05-17T15:15:14.802Z,51.17
2017-05-17T15:16:14.993Z,51.12
2017-05-17T15:17:14.055Z,51.12
2017-05-17T15:18:14.177Z,51.04
2017-05-17T15:19:14.285Z,51.07
2017-05-17T15:20:14.437Z,51.09
2017-05-17T15:21:14.427Z,51.06
2017-05-17T15:22:14.885Z,50.96
2017-05-17T15:23:14.536Z,51.04
2017-05-17T15:24:14.926Z,51.01
2017-05-17T15:25:13.815Z,50.98
2017-05-17T15:26:15.326Z,51.02
2017-05-17T15:27:14.831Z,50.95
2017-05-17T15:28:15.070Z,50.98
2017-05-17T15:29:10.987Z,50.91
2017-05-17T15:30:15.422Z,50.11
2017-05-17T15:31:11.703Z,49.86
2017-05-17T15:32:15.157Z,49.79
2017-05-17T15:33:15.811Z,50.10
2017-05-17T15:34:16.074Z,50.57
2017-05-17T15:35:14.025Z,50.69
2017-05-17T15:36:15.070Z,50.78
2017-05-17T15:37:14.707Z,50.73
2017-05-17T15:38:14.919Z,50.75
2017-05-17T15:39:13.882Z,50.79
2017-05-17T15:40:14.813Z,50.70
2017-05-17T15:41:15.628Z,50.71
2017-05-17T15:42:15.854Z,50.74
2017-05-17T15:43:10.848Z,50.74
2017-05-17T15:44:15.013Z,50.72
2017-05-17T15:45:13.761Z,50.68
2017-05-17T15:46:14.962Z,50.70
2017-05-17T15:47:14.263Z,50.61
2017-05-17T15:48:14.661Z,50.65
2017-05-17T15:49:14.895Z,50.61
2017-05-17T15:50:15.315Z,50.58
2017-05-17T15:51:14.350Z,50.56
2017-05-17T15:52:15.295Z,50.61
2017-05-17T15:53:15.992Z,50.61
2017-05-17T15:54:14.725Z,50.53
2017-05-17T15:55:16.235Z,50.50
2017-05-17T15:56:14.759Z,50.56
2017-05-17T15:57:13.254Z,50.53
2017-05-17T15:58:15.028Z,50.52
2017-05-17T15:59:14.098Z,50.50
2017-05-17T16:00:14.533Z,50.40
2017-05-17T16:01:14.643Z,50.54
2017-05-17T16:02:11.724Z,50.51
2017-05-17T16:03:15.122Z,50.52
2017-05-17T16:04:14.216Z,50.49
2017-05-17T16:05:14.935Z,50.30
2017-05-17T16:06:13.811Z,50.44
2017-05-17T16:07:14.779Z,50.44
2017-05-17T16:08:14.808Z,50.32
2017-05-17T16:09:15.299Z,50.42
2017-05-17T16:10:15.027Z,50.30
2017-05-17T16:11:14.634Z,50.42
2017-05-17T16:12:14.870Z,50.46
2017-05-17T16:13:11.754Z,50.49
2017-05-17T16:14:14.484Z,50.44
2017-05-17T16:15:14.588Z,50.53
2017-05-17T16:16:14.689Z,50.56
2017-05-17T16:17:14.857Z,50.40
2017-05-17T16:18:15.176Z,50.39
2017-05-17T16:19:14.364Z,50.43
2017-05-17T16:20:14.662Z,50.32
2017-05-17T16:21:16.143Z,50.29
2017-05-17T16:22:15.224Z,50.45
2017-05-17T16:23:15.184Z,50.43
2017-05-17T16:24:14.224Z,50.34
2017-05-17T16:25:15.190Z,50.42
2017-05-17T16:26:14.665Z,50.35
2017-05-17T16:27:11.988Z,50.34
2017-05-17T16:28:15.165Z,50.41
2017-05-17T16:29:14.359Z,50.48
2017-05-17T16:30:15.474Z,50.48
2017-05-17T16:31:14.967Z,50.52
2017-05-17T16:32:14.290Z,50.49
2017-05-17T16:33:14.980Z,50.52
2017-05-17T16:34:13.703Z,50.56
2017-05-17T16:35:14.576Z,50.60
2017-05-17T16:36:14.887Z,50.65
2017-05-17T16:37:15.051Z,50.68
2017-05-17T16:38:14.053Z,50.77
2017-05-17T16:39:15.107Z,50.80
2017-05-17T16:40:15.501Z,50.81
2017-05-17T16:41:15.027Z,50.89
2017-05-17T16:42:15.616Z,50.93
2017-05-17T16:43:15.043Z,51.05
2017-05-17T16:44:13.905Z,50.90
2017-05-17T16:45:14.206Z,50.95
2017-05-17T16:46:14.297Z,51.00
2017-05-17T16:47:14.535Z,51.23
2017-05-17T16:48:14.559Z,51.23
2017-05-17T16:49:14.862Z,51.22
2017-05-17T16:50:15.908Z,51.20
2017-05-17T16:51:14.283Z,51.40
2017-05-17T16:52:14.500Z,51.32
2017-05-17T16:53:12.349Z,51.30
2017-05-17T16:54:15.662Z,51.36
2017-05-17T16:55:15.074Z,51.76
2017-05-17T16:56:15.481Z,51.64
2017-05-17T16:57:14.800Z,51.76
2017-05-17T16:58:16.411Z,51.68
2017-05-17T16:59:14.546Z,51.71
2017-05-17T17:00:12.413Z,51.77
2017-05-17T17:01:15.479Z,51.23
2017-05-17T17:02:15.206Z,51.18
2017-05-17T17:03:14.231Z,51.23
2017-05-17T17:04:14.470Z,51.26
2017-05-17T17:05:14.345Z,51.36
2017-05-17T17:06:15.665Z,51.35
2017-05-17T17:07:15.303Z,51.70
2017-05-17T17:08:14.500Z,51.58
2017-05-17T17:09:11.006Z,51.51
2017-05-17T17:10:15.078Z,51.55
2017-05-17T17:11:14.834Z,51.67
2017-05-17T17:12:14.984Z,51.88
2017-05-17T17:13:14.282Z,52.54
2017-05-17T17:14:14.420Z,52.61
2017-05-17T17:15:14.717Z,52.85
2017-05-17T17:16:15.585Z,52.82
2017-05-17T17:17:15.232Z,53.05
2017-05-17T17:18:14.175Z,53.09